sensor_id;sensor_type;location;lat;lon;timestamp;P1;durP1;ratioP1;P2;durP2;ratioP2
4023;SDS011;2026;51.002;13.668;2023-04-01T00:01:03;3.17;;;1.10;;
4023;SDS011;2026;51.002;13.668;2023-04-01T00:06:07;1.57;;;1.10;;
4023;SDS011;2026;51.002;13.668;2023-04-01T00:11:12;1.70;;;1.00;;
4023;SDS011;2026;51.002;13.668;2023-04-01T00:16:16;4.40;;;1.20;;
4023;SDS011;2026;51.002;13.668;2023-04-01T00:21:23;2.97;;;1.00;;
4023;SDS011;2026;51.002;13.668;2023-04-01T00:26:26;2.00;;;1.27;;
4023;SDS011;2026;51.002;13.668;2023-04-01T00:31:32;5.70;;;1.20;;
4023;SDS011;2026;51.002;13.668;2023-04-01T00:36:35;3.70;;;1.20;;
4023;SDS011;2026;51.002;13.668;2023-04-01T00:41:38;3.30;;;1.73;;
4023;SDS011;2026;51.002;13.668;2023-04-01T00:46:42;1.97;;;1.20;;
4023;SDS011;2026;51.002;13.668;2023-04-01T00:51:46;4.17;;;1.30;;
4023;SDS011;2026;51.002;13.668;2023-04-01T00:56:53;5.50;;;1.97;;
4023;SDS011;2026;51.002;13.668;2023-04-01T01:02:02;2.23;;;1.53;;
4023;SDS011;2026;51.002;13.668;2023-04-01T01:07:12;1.33;;;0.90;;
4023;SDS011;2026;51.002;13.668;2023-04-01T01:12:25;2.40;;;1.30;;
4023;SDS011;2026;51.002;13.668;2023-04-01T01:17:42;3.73;;;1.00;;
4023;SDS011;2026;51.002;13.668;2023-04-01T01:22:52;4.27;;;1.30;;
4023;SDS011;2026;51.002;13.668;2023-04-01T01:28:10;2.50;;;1.00;;
4023;SDS011;2026;51.002;13.668;2023-04-01T01:33:38;5.40;;;1.00;;
4023;SDS011;2026;51.002;13.668;2023-04-01T01:38:51;1.40;;;1.30;;
4023;SDS011;2026;51.002;13.668;2023-04-01T01:43:55;1.60;;;1.07;;
4023;SDS011;2026;51.002;13.668;2023-04-01T01:48:59;2.50;;;1.27;;
4023;SDS011;2026;51.002;13.668;2023-04-01T01:54:05;1.83;;;1.20;;
4023;SDS011;2026;51.002;13.668;2023-04-01T01:59:08;2.90;;;1.17;;
4023;SDS011;2026;51.002;13.668;2023-04-01T02:04:14;2.60;;;1.20;;
4023;SDS011;2026;51.002;13.668;2023-04-01T02:09:20;2.67;;;1.33;;
4023;SDS011;2026;51.002;13.668;2023-04-01T02:14:24;2.23;;;1.30;;
4023;SDS011;2026;51.002;13.668;2023-04-01T02:19:31;4.70;;;1.30;;
4023;SDS011;2026;51.002;13.668;2023-04-01T02:24:40;2.43;;;1.40;;
4023;SDS011;2026;51.002;13.668;2023-04-01T02:29:45;1.90;;;1.30;;
4023;SDS011;2026;51.002;13.668;2023-04-01T02:34:48;3.10;;;1.20;;
4023;SDS011;2026;51.002;13.668;2023-04-01T02:39:53;4.23;;;1.23;;
4023;SDS011;2026;51.002;13.668;2023-04-01T02:44:56;4.23;;;1.60;;
4023;SDS011;2026;51.002;13.668;2023-04-01T02:49:59;1.90;;;1.00;;
4023;SDS011;2026;51.002;13.668;2023-04-01T02:55:03;3.80;;;1.50;;
4023;SDS011;2026;51.002;13.668;2023-04-01T03:00:09;3.87;;;1.57;;
4023;SDS011;2026;51.002;13.668;2023-04-01T03:05:13;5.73;;;1.30;;
4023;SDS011;2026;51.002;13.668;2023-04-01T03:10:17;1.73;;;1.30;;
4023;SDS011;2026;51.002;13.668;2023-04-01T03:15:21;3.07;;;1.30;;
4023;SDS011;2026;51.002;13.668;2023-04-01T03:20:24;5.13;;;1.57;;
4023;SDS011;2026;51.002;13.668;2023-04-01T03:25:28;3.43;;;1.20;;
4023;SDS011;2026;51.002;13.668;2023-04-01T03:30:32;2.90;;;1.60;;
4023;SDS011;2026;51.002;13.668;2023-04-01T03:35:35;3.37;;;1.77;;
4023;SDS011;2026;51.002;13.668;2023-04-01T03:40:43;5.40;;;1.47;;
4023;SDS011;2026;51.002;13.668;2023-04-01T03:45:46;7.20;;;1.60;;
4023;SDS011;2026;51.002;13.668;2023-04-01T03:50:51;4.93;;;1.50;;
4023;SDS011;2026;51.002;13.668;2023-04-01T03:55:55;2.17;;;1.33;;
4023;SDS011;2026;51.002;13.668;2023-04-01T04:00:58;7.40;;;1.50;;
4023;SDS011;2026;51.002;13.668;2023-04-01T04:06:02;3.97;;;1.50;;
4023;SDS011;2026;51.002;13.668;2023-04-01T04:11:07;4.97;;;1.10;;
4023;SDS011;2026;51.002;13.668;2023-04-01T04:16:13;3.40;;;1.40;;
4023;SDS011;2026;51.002;13.668;2023-04-01T04:21:20;3.27;;;1.40;;
4023;SDS011;2026;51.002;13.668;2023-04-01T04:26:25;2.93;;;1.13;;
4023;SDS011;2026;51.002;13.668;2023-04-01T04:31:33;1.73;;;1.17;;
4023;SDS011;2026;51.002;13.668;2023-04-01T04:36:37;3.40;;;1.27;;
4023;SDS011;2026;51.002;13.668;2023-04-01T04:41:41;3.37;;;1.67;;
4023;SDS011;2026;51.002;13.668;2023-04-01T04:46:44;4.10;;;1.07;;
4023;SDS011;2026;51.002;13.668;2023-04-01T04:51:49;3.27;;;1.07;;
4023;SDS011;2026;51.002;13.668;2023-04-01T04:56:59;4.30;;;1.60;;
4023;SDS011;2026;51.002;13.668;2023-04-01T05:02:06;2.10;;;1.20;;
4023;SDS011;2026;51.002;13.668;2023-04-01T05:07:10;2.60;;;1.20;;
4023;SDS011;2026;51.002;13.668;2023-04-01T05:12:15;2.53;;;1.40;;
4023;SDS011;2026;51.002;13.668;2023-04-01T05:17:36;4.87;;;1.30;;
4023;SDS011;2026;51.002;13.668;2023-04-01T05:22:39;3.20;;;1.10;;
4023;SDS011;2026;51.002;13.668;2023-04-01T05:27:43;2.10;;;1.00;;
4023;SDS011;2026;51.002;13.668;2023-04-01T05:32:46;5.83;;;1.50;;
4023;SDS011;2026;51.002;13.668;2023-04-01T05:37:49;2.50;;;1.40;;
4023;SDS011;2026;51.002;13.668;2023-04-01T05:42:55;3.50;;;1.33;;
4023;SDS011;2026;51.002;13.668;2023-04-01T05:47:58;2.00;;;1.10;;
4023;SDS011;2026;51.002;13.668;2023-04-01T05:53:06;2.57;;;1.13;;
4023;SDS011;2026;51.002;13.668;2023-04-01T05:58:11;2.30;;;1.30;;
4023;SDS011;2026;51.002;13.668;2023-04-01T06:03:17;4.47;;;1.40;;
4023;SDS011;2026;51.002;13.668;2023-04-01T06:08:20;3.30;;;1.93;;
4023;SDS011;2026;51.002;13.668;2023-04-01T06:13:28;3.10;;;1.40;;
4023;SDS011;2026;51.002;13.668;2023-04-01T06:24:17;3.73;;;2.13;;
4023;SDS011;2026;51.002;13.668;2023-04-01T06:29:43;2.70;;;1.80;;
4023;SDS011;2026;51.002;13.668;2023-04-01T06:35:02;5.07;;;3.40;;
4023;SDS011;2026;51.002;13.668;2023-04-01T06:40:27;2.70;;;1.40;;
4023;SDS011;2026;51.002;13.668;2023-04-01T06:45:59;4.47;;;1.90;;
4023;SDS011;2026;51.002;13.668;2023-04-01T06:51:46;2.10;;;1.30;;
4023;SDS011;2026;51.002;13.668;2023-04-01T06:57:18;4.13;;;1.20;;
4023;SDS011;2026;51.002;13.668;2023-04-01T07:02:28;5.97;;;1.10;;
4023;SDS011;2026;51.002;13.668;2023-04-01T07:07:38;1.87;;;1.10;;
4023;SDS011;2026;51.002;13.668;2023-04-01T07:12:48;3.33;;;1.77;;
4023;SDS011;2026;51.002;13.668;2023-04-01T07:18:23;3.40;;;1.43;;
4023;SDS011;2026;51.002;13.668;2023-04-01T07:23:36;3.43;;;1.23;;
4023;SDS011;2026;51.002;13.668;2023-04-01T07:29:05;3.17;;;1.40;;
4023;SDS011;2026;51.002;13.668;2023-04-01T07:34:16;2.50;;;1.53;;
4023;SDS011;2026;51.002;13.668;2023-04-01T07:39:30;2.60;;;1.30;;
4023;SDS011;2026;51.002;13.668;2023-04-01T07:44:59;2.30;;;1.10;;
4023;SDS011;2026;51.002;13.668;2023-04-01T07:50:14;4.27;;;1.37;;
4023;SDS011;2026;51.002;13.668;2023-04-01T07:55:29;9.10;;;1.40;;
4023;SDS011;2026;51.002;13.668;2023-04-01T08:00:40;2.50;;;1.40;;
4023;SDS011;2026;51.002;13.668;2023-04-01T08:06:00;1.80;;;1.10;;
4023;SDS011;2026;51.002;13.668;2023-04-01T08:11:16;2.53;;;1.17;;
4023;SDS011;2026;51.002;13.668;2023-04-01T08:16:46;1.70;;;1.00;;
4023;SDS011;2026;51.002;13.668;2023-04-01T08:22:09;3.37;;;0.97;;
4023;SDS011;2026;51.002;13.668;2023-04-01T08:27:17;2.10;;;1.00;;
4023;SDS011;2026;51.002;13.668;2023-04-01T08:32:28;4.10;;;1.37;;
4023;SDS011;2026;51.002;13.668;2023-04-01T08:37:40;1.70;;;1.00;;
4023;SDS011;2026;51.002;13.668;2023-04-01T08:42:51;2.67;;;1.00;;
4023;SDS011;2026;51.002;13.668;2023-04-01T08:53:49;2.50;;;1.30;;
4023;SDS011;2026;51.002;13.668;2023-04-01T08:59:14;2.37;;;1.80;;
4023;SDS011;2026;51.002;13.668;2023-04-01T09:04:32;1.27;;;1.00;;
4023;SDS011;2026;51.002;13.668;2023-04-01T09:09:54;2.27;;;1.70;;
4023;SDS011;2026;51.002;13.668;2023-04-01T09:15:20;1.17;;;0.93;;
4023;SDS011;2026;51.002;13.668;2023-04-01T09:20:46;5.17;;;1.33;;
4023;SDS011;2026;51.002;13.668;2023-04-01T09:26:07;1.57;;;0.90;;
4023;SDS011;2026;51.002;13.668;2023-04-01T09:31:22;1.77;;;1.20;;
4023;SDS011;2026;51.002;13.668;2023-04-01T09:36:56;3.03;;;1.10;;
4023;SDS011;2026;51.002;13.668;2023-04-01T09:48:03;2.40;;;1.20;;
4023;SDS011;2026;51.002;13.668;2023-04-01T09:53:18;2.80;;;1.00;;
4023;SDS011;2026;51.002;13.668;2023-04-01T10:04:35;1.43;;;1.00;;
4023;SDS011;2026;51.002;13.668;2023-04-01T10:16:04;1.37;;;1.10;;
4023;SDS011;2026;51.002;13.668;2023-04-01T10:21:31;2.40;;;1.20;;
4023;SDS011;2026;51.002;13.668;2023-04-01T10:27:00;2.23;;;1.10;;
4023;SDS011;2026;51.002;13.668;2023-04-01T10:32:45;1.80;;;0.87;;
4023;SDS011;2026;51.002;13.668;2023-04-01T10:38:36;2.17;;;1.17;;
4023;SDS011;2026;51.002;13.668;2023-04-01T10:44:04;2.00;;;1.17;;
4023;SDS011;2026;51.002;13.668;2023-04-01T10:55:20;1.83;;;1.00;;
4023;SDS011;2026;51.002;13.668;2023-04-01T11:01:10;1.90;;;1.10;;
4023;SDS011;2026;51.002;13.668;2023-04-01T11:07:17;1.83;;;0.90;;
4023;SDS011;2026;51.002;13.668;2023-04-01T11:12:48;5.03;;;0.87;;
4023;SDS011;2026;51.002;13.668;2023-04-01T11:18:41;1.20;;;0.80;;
4023;SDS011;2026;51.002;13.668;2023-04-01T11:24:07;1.03;;;0.80;;
4023;SDS011;2026;51.002;13.668;2023-04-01T11:29:38;2.30;;;1.10;;
4023;SDS011;2026;51.002;13.668;2023-04-01T11:35:18;1.30;;;1.00;;
4023;SDS011;2026;51.002;13.668;2023-04-01T11:40:35;1.83;;;0.93;;
4023;SDS011;2026;51.002;13.668;2023-04-01T11:46:05;1.00;;;0.90;;
4023;SDS011;2026;51.002;13.668;2023-04-01T11:51:21;2.90;;;1.00;;
4023;SDS011;2026;51.002;13.668;2023-04-01T11:56:43;5.80;;;1.07;;
4023;SDS011;2026;51.002;13.668;2023-04-01T12:02:01;1.10;;;0.80;;
4023;SDS011;2026;51.002;13.668;2023-04-01T12:07:19;1.90;;;1.30;;
4023;SDS011;2026;51.002;13.668;2023-04-01T12:12:31;1.43;;;1.10;;
4023;SDS011;2026;51.002;13.668;2023-04-01T12:17:56;2.80;;;1.60;;
4023;SDS011;2026;51.002;13.668;2023-04-01T12:23:10;3.07;;;1.63;;
4023;SDS011;2026;51.002;13.668;2023-04-01T12:28:25;1.57;;;1.20;;
4023;SDS011;2026;51.002;13.668;2023-04-01T12:33:40;4.37;;;1.40;;
4023;SDS011;2026;51.002;13.668;2023-04-01T12:39:00;15.80;;;7.40;;
4023;SDS011;2026;51.002;13.668;2023-04-01T12:44:33;0.90;;;0.70;;
4023;SDS011;2026;51.002;13.668;2023-04-01T12:49:55;1.43;;;1.20;;
4023;SDS011;2026;51.002;13.668;2023-04-01T12:55:17;1.00;;;0.70;;
4023;SDS011;2026;51.002;13.668;2023-04-01T13:00:39;0.70;;;0.70;;
4023;SDS011;2026;51.002;13.668;2023-04-01T13:06:00;1.40;;;1.13;;
4023;SDS011;2026;51.002;13.668;2023-04-01T13:11:25;2.70;;;1.30;;
4023;SDS011;2026;51.002;13.668;2023-04-01T13:16:45;0.70;;;0.70;;
4023;SDS011;2026;51.002;13.668;2023-04-01T13:21:57;0.70;;;0.60;;
4023;SDS011;2026;51.002;13.668;2023-04-01T13:27:08;1.00;;;0.80;;
4023;SDS011;2026;51.002;13.668;2023-04-01T13:32:18;1.60;;;1.07;;
4023;SDS011;2026;51.002;13.668;2023-04-01T13:37:48;0.70;;;0.70;;
4023;SDS011;2026;51.002;13.668;2023-04-01T13:43:04;2.50;;;1.83;;
4023;SDS011;2026;51.002;13.668;2023-04-01T13:48:31;3.50;;;0.90;;
4023;SDS011;2026;51.002;13.668;2023-04-01T13:59:38;1.00;;;0.90;;
4023;SDS011;2026;51.002;13.668;2023-04-01T14:04:56;0.70;;;0.70;;
4023;SDS011;2026;51.002;13.668;2023-04-01T14:10:19;0.97;;;0.80;;
4023;SDS011;2026;51.002;13.668;2023-04-01T14:15:41;1.83;;;0.90;;
4023;SDS011;2026;51.002;13.668;2023-04-01T14:20:53;0.93;;;0.80;;
4023;SDS011;2026;51.002;13.668;2023-04-01T14:26:13;3.20;;;0.80;;
4023;SDS011;2026;51.002;13.668;2023-04-01T14:31:43;0.70;;;0.70;;
4023;SDS011;2026;51.002;13.668;2023-04-01T14:36:53;2.77;;;1.00;;
4023;SDS011;2026;51.002;13.668;2023-04-01T14:47:53;1.17;;;1.00;;
4023;SDS011;2026;51.002;13.668;2023-04-01T14:53:13;1.00;;;0.90;;
4023;SDS011;2026;51.002;13.668;2023-04-01T14:58:38;0.90;;;0.80;;
4023;SDS011;2026;51.002;13.668;2023-04-01T15:03:48;1.13;;;0.80;;
4023;SDS011;2026;51.002;13.668;2023-04-01T15:09:00;0.80;;;0.63;;
4023;SDS011;2026;51.002;13.668;2023-04-01T15:19:47;0.87;;;0.80;;
4023;SDS011;2026;51.002;13.668;2023-04-01T15:25:13;1.10;;;0.90;;
4023;SDS011;2026;51.002;13.668;2023-04-01T15:30:27;0.80;;;0.70;;
4023;SDS011;2026;51.002;13.668;2023-04-01T15:35:39;2.10;;;0.83;;
4023;SDS011;2026;51.002;13.668;2023-04-01T15:40:49;0.80;;;0.80;;
4023;SDS011;2026;51.002;13.668;2023-04-01T15:46:08;0.87;;;0.70;;
4023;SDS011;2026;51.002;13.668;2023-04-01T15:51:35;1.37;;;1.07;;
4023;SDS011;2026;51.002;13.668;2023-04-01T15:56:50;0.83;;;0.80;;
4023;SDS011;2026;51.002;13.668;2023-04-01T16:02:07;3.40;;;3.03;;
4023;SDS011;2026;51.002;13.668;2023-04-01T16:07:28;3.00;;;2.80;;
4023;SDS011;2026;51.002;13.668;2023-04-01T16:12:48;1.90;;;1.30;;
4023;SDS011;2026;51.002;13.668;2023-04-01T16:18:06;1.30;;;1.20;;
4023;SDS011;2026;51.002;13.668;2023-04-01T16:23:24;1.30;;;1.20;;
4023;SDS011;2026;51.002;13.668;2023-04-01T16:28:32;1.37;;;1.27;;
4023;SDS011;2026;51.002;13.668;2023-04-01T16:33:40;2.47;;;2.27;;
4023;SDS011;2026;51.002;13.668;2023-04-01T16:38:52;3.10;;;2.67;;
4023;SDS011;2026;51.002;13.668;2023-04-01T16:44:12;1.30;;;1.20;;
4023;SDS011;2026;51.002;13.668;2023-04-01T16:49:25;4.10;;;2.80;;
4023;SDS011;2026;51.002;13.668;2023-04-01T16:54:38;4.00;;;3.60;;
4023;SDS011;2026;51.002;13.668;2023-04-01T16:59:47;5.93;;;5.43;;
4023;SDS011;2026;51.002;13.668;2023-04-01T17:04:58;2.50;;;2.07;;
4023;SDS011;2026;51.002;13.668;2023-04-01T17:10:13;2.60;;;2.40;;
4023;SDS011;2026;51.002;13.668;2023-04-01T17:15:41;2.40;;;2.20;;
4023;SDS011;2026;51.002;13.668;2023-04-01T17:20:49;2.07;;;1.40;;
4023;SDS011;2026;51.002;13.668;2023-04-01T17:26:01;2.73;;;2.10;;
4023;SDS011;2026;51.002;13.668;2023-04-01T17:31:23;2.80;;;1.50;;
4023;SDS011;2026;51.002;13.668;2023-04-01T17:36:42;2.00;;;1.80;;
4023;SDS011;2026;51.002;13.668;2023-04-01T17:42:00;2.50;;;2.30;;
4023;SDS011;2026;51.002;13.668;2023-04-01T17:47:16;3.20;;;2.03;;
4023;SDS011;2026;51.002;13.668;2023-04-01T17:52:32;3.53;;;2.27;;
4023;SDS011;2026;51.002;13.668;2023-04-01T17:57:45;5.60;;;4.00;;
4023;SDS011;2026;51.002;13.668;2023-04-01T18:02:56;3.33;;;3.03;;
4023;SDS011;2026;51.002;13.668;2023-04-01T18:08:11;4.03;;;2.30;;
4023;SDS011;2026;51.002;13.668;2023-04-01T18:18:58;3.67;;;2.47;;
4023;SDS011;2026;51.002;13.668;2023-04-01T18:24:11;4.00;;;3.27;;
4023;SDS011;2026;51.002;13.668;2023-04-01T18:29:26;4.80;;;4.10;;
4023;SDS011;2026;51.002;13.668;2023-04-01T18:34:40;5.50;;;4.53;;
4023;SDS011;2026;51.002;13.668;2023-04-01T18:39:53;9.03;;;6.60;;
4023;SDS011;2026;51.002;13.668;2023-04-01T18:45:09;3.70;;;2.67;;
4023;SDS011;2026;51.002;13.668;2023-04-01T18:50:21;3.77;;;2.90;;
4023;SDS011;2026;51.002;13.668;2023-04-01T18:55:31;7.20;;;6.50;;
4023;SDS011;2026;51.002;13.668;2023-04-01T19:00:41;4.40;;;2.97;;
4023;SDS011;2026;51.002;13.668;2023-04-01T19:05:53;12.67;;;11.30;;
4023;SDS011;2026;51.002;13.668;2023-04-01T19:11:05;14.70;;;11.00;;
4023;SDS011;2026;51.002;13.668;2023-04-01T19:16:17;10.77;;;8.80;;
4023;SDS011;2026;51.002;13.668;2023-04-01T19:21:27;8.90;;;5.83;;
4023;SDS011;2026;51.002;13.668;2023-04-01T19:26:37;7.13;;;5.60;;
4023;SDS011;2026;51.002;13.668;2023-04-01T19:31:48;5.50;;;4.33;;
4023;SDS011;2026;51.002;13.668;2023-04-01T19:36:56;4.80;;;3.97;;
4023;SDS011;2026;51.002;13.668;2023-04-01T19:42:06;5.87;;;3.33;;
4023;SDS011;2026;51.002;13.668;2023-04-01T19:47:20;8.47;;;6.33;;
4023;SDS011;2026;51.002;13.668;2023-04-01T19:52:33;7.70;;;6.90;;
4023;SDS011;2026;51.002;13.668;2023-04-01T19:57:42;8.47;;;7.27;;
4023;SDS011;2026;51.002;13.668;2023-04-01T20:03:07;9.10;;;7.30;;
4023;SDS011;2026;51.002;13.668;2023-04-01T20:08:26;10.13;;;7.53;;
4023;SDS011;2026;51.002;13.668;2023-04-01T20:13:38;9.13;;;7.17;;
4023;SDS011;2026;51.002;13.668;2023-04-01T20:18:52;9.73;;;6.17;;
4023;SDS011;2026;51.002;13.668;2023-04-01T20:24:00;8.00;;;6.37;;
4023;SDS011;2026;51.002;13.668;2023-04-01T20:29:35;8.17;;;6.37;;
4023;SDS011;2026;51.002;13.668;2023-04-01T20:34:57;5.83;;;4.93;;
4023;SDS011;2026;51.002;13.668;2023-04-01T20:40:31;5.00;;;4.50;;
4023;SDS011;2026;51.002;13.668;2023-04-01T20:45:37;5.20;;;4.30;;
4023;SDS011;2026;51.002;13.668;2023-04-01T20:50:51;3.57;;;3.20;;
4023;SDS011;2026;51.002;13.668;2023-04-01T20:56:02;4.03;;;3.27;;
4023;SDS011;2026;51.002;13.668;2023-04-01T21:01:15;3.47;;;2.73;;
4023;SDS011;2026;51.002;13.668;2023-04-01T21:06:33;2.87;;;2.57;;
4023;SDS011;2026;51.002;13.668;2023-04-01T21:11:52;3.27;;;2.97;;
4023;SDS011;2026;51.002;13.668;2023-04-01T21:17:04;4.13;;;3.70;;
4023;SDS011;2026;51.002;13.668;2023-04-01T21:22:19;4.20;;;2.50;;
4023;SDS011;2026;51.002;13.668;2023-04-01T21:27:39;2.67;;;2.17;;
4023;SDS011;2026;51.002;13.668;2023-04-01T21:32:56;2.10;;;1.90;;
4023;SDS011;2026;51.002;13.668;2023-04-01T21:38:22;4.13;;;3.10;;
4023;SDS011;2026;51.002;13.668;2023-04-01T21:43:38;3.37;;;2.70;;
4023;SDS011;2026;51.002;13.668;2023-04-01T21:49:09;9.20;;;6.70;;
4023;SDS011;2026;51.002;13.668;2023-04-01T21:54:44;5.10;;;4.07;;
4023;SDS011;2026;51.002;13.668;2023-04-01T22:05:27;4.13;;;3.43;;
4023;SDS011;2026;51.002;13.668;2023-04-01T22:10:36;4.50;;;3.40;;
4023;SDS011;2026;51.002;13.668;2023-04-01T22:15:50;2.33;;;2.10;;
4023;SDS011;2026;51.002;13.668;2023-04-01T22:21:07;3.00;;;2.70;;
4023;SDS011;2026;51.002;13.668;2023-04-01T22:26:19;3.50;;;3.20;;
4023;SDS011;2026;51.002;13.668;2023-04-01T22:31:30;3.30;;;3.00;;
4023;SDS011;2026;51.002;13.668;2023-04-01T22:36:42;5.07;;;3.30;;
4023;SDS011;2026;51.002;13.668;2023-04-01T22:41:59;3.50;;;2.73;;
4023;SDS011;2026;51.002;13.668;2023-04-01T22:47:12;4.33;;;3.83;;
4023;SDS011;2026;51.002;13.668;2023-04-01T22:52:23;4.20;;;3.40;;
4023;SDS011;2026;51.002;13.668;2023-04-01T22:57:41;5.17;;;3.73;;
4023;SDS011;2026;51.002;13.668;2023-04-01T23:03:00;5.70;;;3.53;;
4023;SDS011;2026;51.002;13.668;2023-04-01T23:08:24;5.73;;;3.93;;
4023;SDS011;2026;51.002;13.668;2023-04-01T23:13:45;5.87;;;4.17;;
4023;SDS011;2026;51.002;13.668;2023-04-01T23:18:55;5.60;;;4.53;;
4023;SDS011;2026;51.002;13.668;2023-04-01T23:24:07;5.50;;;3.80;;
4023;SDS011;2026;51.002;13.668;2023-04-01T23:29:22;6.23;;;3.93;;
4023;SDS011;2026;51.002;13.668;2023-04-01T23:34:28;5.73;;;3.83;;
4023;SDS011;2026;51.002;13.668;2023-04-01T23:39:33;8.10;;;4.47;;
4023;SDS011;2026;51.002;13.668;2023-04-01T23:44:39;6.53;;;3.73;;
4023;SDS011;2026;51.002;13.668;2023-04-01T23:49:43;6.60;;;4.73;;
4023;SDS011;2026;51.002;13.668;2023-04-01T23:54:51;5.27;;;4.40;;
